Mitchell, SD

12:38 AM CDT am 27. Mai 2015 (GMT -0500)
Pleasant Hills | | Change Station
CLOSE
Current Station
Persönliche Wetterstationen
Location: Mitchell, SD
Höhe: 1285 ft
Wetterstationen in der Umgebung

Höhe 1285 ft 43.73 °N, 98.01 °W | Updated 3 minutes ago

Teils Wolkig
Teils Wolkig
57.0 °F
gefühlte 57.0 °F
N
0.0
Wind Wechselnd Wind aus Nord
Gusts 0.0 mph

Heute
Max. -- | schwach -- °F
--% Regenrisiko
Gestern
Max. -- | schwach -- °F
Precip. -- inch
5:56 AM 9:02 PM
Zweites Viertel, 64% visible
Druck 29.90 inch
Sichtweite 10.0 Meilen
Wolken Heiter
Taupunkt 53 °F
Feuchtigkeit 88%
Regen 0.00 inch
Schneehöhe Nicht verfügbar..
UV 0 von 12
Pollen 8.50 von 12
Luftqualität Nicht verfügbar..
Flu Activity Sporadic
METAR KMHE 270453Z AUTO 30005KT 10SM CLR 16/11 A2991 RMK AO2 SLP124 T01560106

More Conditions Fewer Conditions

Druck 29.90 inch
Sichtweite 10.0 Meilen
Wolken Heiter
Taupunkt 53 °F
Feuchtigkeit 88%
Regen 0.00 inch
Schneehöhe Nicht verfügbar..
UV 0 von 12
Pollen 8.50 von 12
Luftqualität Nicht verfügbar..
Flu Activity Sporadic
METAR KMHE 270453Z AUTO 30005KT 10SM CLR 16/11 A2991 RMK AO2 SLP124 T01560106

More Conditions Fewer Conditions

10-Day Weather Forecast

Almanac

Astronomie

May. 27, 2015 Aufgang Untergang
Genaue Zeit
Bürgerliche Dämmerung
Nautische Dämmerung
Astronomische Dämmerung
Mond
Länge des sichtbaren Lichts
Tageslänge
Tomorrow will be .
, % of the Moon is Illuminated

Heutige Rekorde

State Highs State Lows

Community

WunderPhotos

Upload Photos

1,824,617 Fotos hochgeladen!

WunderBlogs® & News

Nearby

Luftqualität

  Luftqualität LQ Index Schadstoff
Not available.

Schneehöhe

Station Depth Höhe

Erdbebenaktivität

Stadt Distance Mag. Time & Date
Minimum magnitude displayed is 2.5.

küstennahe Wassertemperaturen

Ort Temperatur

Stations

Wetterstationen in der Umgebung

Stationsstandort Temp. Windchill Taupunkt Feuchtigkeit Wind Precip. Höhe Aktualisiert Art